createdAt,value
2022-10-31T00:00:29.966Z,5.90
2022-10-31T00:02:56.879Z,5.93
2022-10-31T00:05:23.581Z,5.88
2022-10-31T00:07:52.691Z,6.05
2022-10-31T00:10:22.239Z,5.70
2022-10-31T00:12:48.667Z,5.80
2022-10-31T00:15:15.199Z,5.60
2022-10-31T00:17:41.759Z,5.97
2022-10-31T00:20:08.638Z,5.57
2022-10-31T00:22:35.128Z,5.78
2022-10-31T00:25:01.571Z,5.57
2022-10-31T00:27:28.030Z,6.03
2022-10-31T00:29:54.469Z,5.85
2022-10-31T00:32:20.891Z,5.47
2022-10-31T00:34:47.424Z,5.03
2022-10-31T00:37:13.891Z,5.05
2022-10-31T00:39:40.462Z,5.18
2022-10-31T00:42:06.929Z,5.43
2022-10-31T00:44:33.390Z,5.57
2022-10-31T00:46:59.835Z,5.28
2022-10-31T00:49:26.256Z,5.05
2022-10-31T00:51:52.822Z,5.75
2022-10-31T00:54:19.254Z,4.90
2022-10-31T00:56:45.740Z,5.13
2022-10-31T00:59:12.199Z,5.20
2022-10-31T01:01:38.768Z,5.28
2022-10-31T01:04:05.521Z,5.13
2022-10-31T01:06:31.994Z,5.40
2022-10-31T01:08:58.462Z,5.20
2022-10-31T01:11:25.275Z,5.07
2022-10-31T01:13:53.013Z,4.90
2022-10-31T01:16:20.856Z,5.05
2022-10-31T01:18:47.832Z,4.90
2022-10-31T01:21:22.167Z,4.80
2022-10-31T01:23:48.589Z,5.18
2022-10-31T01:26:16.663Z,5.20
2022-10-31T01:28:50.524Z,4.88
2022-10-31T01:31:18.214Z,5.35
2022-10-31T01:33:45.190Z,5.07
2022-10-31T01:36:14.624Z,4.65
2022-10-31T01:38:41.123Z,4.97
2022-10-31T01:41:07.633Z,5.07
2022-10-31T01:44:06.510Z,4.95
2022-10-31T01:46:41.773Z,5.10
2022-10-31T01:49:18.265Z,4.68
2022-10-31T01:51:59.698Z,4.80
2022-10-31T01:54:29.381Z,4.73
2022-10-31T01:56:57.304Z,4.90
2022-10-31T01:59:25.749Z,5.05
2022-10-31T02:01:53.135Z,5.30
2022-10-31T02:04:20.104Z,5.15
2022-10-31T02:06:56.783Z,4.88
2022-10-31T02:09:24.523Z,5.30
2022-10-31T02:11:52.942Z,4.85
2022-10-31T02:14:19.681Z,4.97
2022-10-31T02:16:46.137Z,4.90
2022-10-31T02:19:16.453Z,4.78
2022-10-31T02:21:51.032Z,5.13
2022-10-31T02:24:32.807Z,5.13
2022-10-31T02:27:15.844Z,4.80
2022-10-31T02:30:03.492Z,5.05
2022-10-31T02:32:35.743Z,5.03
2022-10-31T02:35:12.910Z,5.07
2022-10-31T02:37:42.111Z,4.75
2022-10-31T02:40:15.968Z,4.90
2022-10-31T02:42:42.417Z,5.25
2022-10-31T02:45:11.299Z,4.90
2022-10-31T02:47:38.647Z,4.65
2022-10-31T02:50:11.872Z,4.85
2022-10-31T02:52:38.391Z,4.75
2022-10-31T02:55:34.378Z,4.43
2022-10-31T02:58:06.436Z,4.43
2022-10-31T03:02:59.666Z,4.22
2022-10-31T03:05:52.489Z,4.30
2022-10-31T03:08:18.977Z,4.82
2022-10-31T03:10:48.277Z,4.82
2022-10-31T03:13:33.665Z,4.43
2022-10-31T03:16:17.284Z,4.57
2022-10-31T03:18:50.900Z,4.40
2022-10-31T03:21:23.538Z,4.32
2022-10-31T03:23:51.681Z,4.25
2022-10-31T03:26:18.893Z,4.13
2022-10-31T03:28:50.110Z,4.70
2022-10-31T03:31:18.302Z,4.07
2022-10-31T03:33:46.120Z,4.57
2022-10-31T03:36:15.549Z,4.35
2022-10-31T03:38:43.454Z,4.75
2022-10-31T03:41:12.214Z,4.60
2022-10-31T03:43:41.659Z,4.57
2022-10-31T03:46:08.139Z,4.30
2022-10-31T03:48:34.668Z,4.55
2022-10-31T03:51:08.437Z,4.53
2022-10-31T03:53:44.401Z,4.70
2022-10-31T03:56:14.012Z,4.07
2022-10-31T03:58:47.798Z,4.45
2022-10-31T04:01:17.172Z,4.25
2022-10-31T04:03:44.380Z,4.72
2022-10-31T04:06:13.270Z,4.30
2022-10-31T04:08:42.376Z,4.18
2022-10-31T04:11:09.468Z,4.25
2022-10-31T04:13:37.750Z,4.30
2022-10-31T04:16:04.516Z,3.97
2022-10-31T04:18:31.012Z,4.10
2022-10-31T04:21:05.060Z,4.40
2022-10-31T04:23:31.647Z,4.00
2022-10-31T04:25:58.206Z,3.75
2022-10-31T04:28:24.924Z,4.00
2022-10-31T04:30:51.625Z,4.57
2022-10-31T04:33:18.399Z,3.65
2022-10-31T04:35:44.887Z,4.05
2022-10-31T04:38:11.369Z,3.90
2022-10-31T04:40:37.803Z,3.47
2022-10-31T04:43:04.411Z,3.80
2022-10-31T04:45:31.049Z,3.45
2022-10-31T04:47:57.821Z,3.80
2022-10-31T04:50:24.754Z,3.70
2022-10-31T04:52:51.597Z,3.47
2022-10-31T04:55:18.047Z,3.70
2022-10-31T04:57:45.372Z,3.38
2022-10-31T05:00:12.555Z,3.83
2022-10-31T05:02:48.687Z,3.50
2022-10-31T05:05:16.246Z,3.80
2022-10-31T05:07:43.324Z,3.58
2022-10-31T05:10:13.895Z,3.50
2022-10-31T05:12:47.203Z,3.42
2022-10-31T05:15:13.786Z,3.40
2022-10-31T05:17:40.289Z,3.40
2022-10-31T05:20:06.976Z,3.40
2022-10-31T05:22:33.889Z,3.42
2022-10-31T05:25:00.489Z,3.63
2022-10-31T05:27:26.927Z,3.22
2022-10-31T05:29:53.445Z,3.05
2022-10-31T05:32:20.001Z,3.72
2022-10-31T05:34:46.464Z,3.20
2022-10-31T05:37:12.897Z,3.30
2022-10-31T05:39:39.364Z,3.50
2022-10-31T05:42:05.814Z,3.50
2022-10-31T05:44:32.300Z,3.10
2022-10-31T05:46:58.810Z,2.88
2022-10-31T05:49:25.282Z,3.40
2022-10-31T05:51:51.849Z,2.97
2022-10-31T05:54:18.323Z,2.85
2022-10-31T05:56:44.845Z,3.28
2022-10-31T05:59:11.316Z,3.28
2022-10-31T06:01:37.779Z,2.80
2022-10-31T06:04:04.333Z,3.08
2022-10-31T06:06:30.779Z,2.90
2022-10-31T06:08:57.306Z,3.03
2022-10-31T06:11:27.281Z,2.92
2022-10-31T06:13:53.787Z,2.80
2022-10-31T06:16:20.455Z,2.90
2022-10-31T06:18:47.384Z,2.80
2022-10-31T06:21:16.445Z,3.22
2022-10-31T06:23:45.401Z,2.80
2022-10-31T06:26:11.952Z,2.80
2022-10-31T06:28:38.392Z,2.80
2022-10-31T06:31:05.586Z,2.70
2022-10-31T06:33:32.102Z,2.78
2022-10-31T06:35:58.572Z,3.10
2022-10-31T06:38:26.356Z,2.88
2022-10-31T06:40:52.798Z,2.85
2022-10-31T06:43:19.278Z,2.70
2022-10-31T06:45:45.730Z,2.65
2022-10-31T06:48:17.295Z,2.67
2022-10-31T06:55:42.434Z,2.53
2022-10-31T06:58:10.327Z,3.05
2022-10-31T07:00:37.381Z,3.03
2022-10-31T07:03:05.390Z,3.78
2022-10-31T07:05:32.286Z,3.78
2022-10-31T07:08:08.133Z,3.70
2022-10-31T07:10:39.047Z,4.05
2022-10-31T07:13:08.021Z,4.10
2022-10-31T07:15:35.533Z,3.78
2022-10-31T07:18:02.783Z,4.18
2022-10-31T07:20:29.440Z,3.60
2022-10-31T07:22:55.943Z,4.07
2022-10-31T07:25:22.896Z,3.80
2022-10-31T07:27:49.561Z,3.78
2022-10-31T07:30:16.874Z,3.58
2022-10-31T07:32:44.369Z,4.00
2022-10-31T07:35:12.034Z,4.13
2022-10-31T07:37:38.985Z,4.20
2022-10-31T07:40:06.156Z,4.25
2022-10-31T07:42:39.339Z,3.33
2022-10-31T07:45:06.509Z,3.95
2022-10-31T07:47:43.000Z,3.78
2022-10-31T07:50:10.499Z,3.97
2022-10-31T07:52:36.956Z,3.63
2022-10-31T07:55:03.893Z,3.75
2022-10-31T07:57:34.548Z,3.25
2022-10-31T08:00:01.834Z,4.00
2022-10-31T08:02:28.485Z,3.45
2022-10-31T08:04:58.677Z,3.60
2022-10-31T08:07:27.690Z,3.60
2022-10-31T08:09:54.210Z,3.78
2022-10-31T08:12:20.680Z,3.58
2022-10-31T08:14:47.209Z,3.25
2022-10-31T08:17:13.641Z,3.60
2022-10-31T08:19:40.099Z,3.95
2022-10-31T08:22:06.545Z,3.35
2022-10-31T08:24:33.036Z,3.92
2022-10-31T08:26:59.519Z,3.30
2022-10-31T08:29:25.981Z,3.22
2022-10-31T08:31:52.494Z,3.20
2022-10-31T08:34:18.916Z,3.60
2022-10-31T08:36:47.181Z,3.95
2022-10-31T08:39:13.668Z,3.30
2022-10-31T08:41:40.270Z,3.13
2022-10-31T08:44:06.707Z,3.17
2022-10-31T08:46:33.661Z,3.33
2022-10-31T08:49:00.154Z,3.38
2022-10-31T08:51:26.573Z,3.10
2022-10-31T08:53:53.098Z,2.70
2022-10-31T08:56:19.545Z,2.90
2022-10-31T08:58:46.236Z,3.05
2022-10-31T09:01:12.802Z,3.47
2022-10-31T09:03:39.339Z,3.17
2022-10-31T09:06:09.759Z,3.25
2022-10-31T09:08:36.787Z,3.08
2022-10-31T09:11:03.513Z,3.20
2022-10-31T09:13:30.225Z,3.38
2022-10-31T09:15:57.435Z,3.30
2022-10-31T09:18:24.531Z,3.08
2022-10-31T09:20:51.440Z,3.10
2022-10-31T09:23:22.130Z,2.92
2022-10-31T09:25:50.681Z,3.47
2022-10-31T09:28:19.054Z,3.13
2022-10-31T09:30:47.074Z,3.05
2022-10-31T09:33:14.114Z,2.95
2022-10-31T09:35:40.996Z,2.88
2022-10-31T09:38:10.016Z,3.03
2022-10-31T09:40:40.741Z,2.42
2022-10-31T09:43:22.241Z,2.72
2022-10-31T09:45:54.841Z,2.30
2022-10-31T09:48:30.516Z,2.90
2022-10-31T09:51:01.682Z,2.58
2022-10-31T09:53:36.334Z,2.80
2022-10-31T09:56:03.444Z,2.40
2022-10-31T09:58:33.089Z,2.85
2022-10-31T10:01:03.298Z,2.72
2022-10-31T10:03:33.970Z,2.53
2022-10-31T10:06:15.985Z,2.60
2022-10-31T10:08:42.543Z,2.67
2022-10-31T10:11:12.067Z,2.17
2022-10-31T10:13:44.077Z,2.30
2022-10-31T10:16:15.936Z,2.53
2022-10-31T10:18:48.612Z,2.17
2022-10-31T10:21:38.981Z,2.45
2022-10-31T10:24:11.196Z,2.28
2022-10-31T10:29:22.787Z,2.00
2022-10-31T10:31:50.763Z,2.40
2022-10-31T10:34:38.098Z,2.03
2022-10-31T10:37:08.675Z,1.95
2022-10-31T10:39:41.545Z,1.95
2022-10-31T10:42:35.965Z,2.25
2022-10-31T10:45:34.132Z,2.25
2022-10-31T10:48:06.357Z,2.10
2022-10-31T10:53:32.705Z,2.13
2022-10-31T10:56:08.151Z,2.00
2022-10-31T10:58:34.785Z,1.92
2022-10-31T11:01:04.316Z,2.08
2022-10-31T11:03:36.061Z,1.73
2022-10-31T11:06:02.899Z,1.90
2022-10-31T11:08:36.786Z,2.17
2022-10-31T11:11:10.588Z,2.10
2022-10-31T11:13:37.489Z,2.22
2022-10-31T11:16:05.724Z,2.10
2022-10-31T11:18:33.942Z,2.03
2022-10-31T11:21:01.683Z,1.85
2022-10-31T11:23:28.905Z,1.80
2022-10-31T11:26:02.632Z,1.90
2022-10-31T11:28:33.456Z,1.95
2022-10-31T11:31:01.442Z,1.88
2022-10-31T11:33:27.926Z,2.10
2022-10-31T11:35:57.893Z,2.00
2022-10-31T11:38:27.262Z,1.88
2022-10-31T11:41:04.187Z,1.80
2022-10-31T11:43:30.734Z,2.00
2022-10-31T11:45:57.423Z,1.80
2022-10-31T11:48:24.596Z,1.77
2022-10-31T11:50:56.561Z,1.67
2022-10-31T11:53:26.991Z,1.70
2022-10-31T11:56:14.073Z,1.83
2022-10-31T11:58:40.530Z,1.60
2022-10-31T12:01:07.050Z,1.70
2022-10-31T12:03:44.906Z,1.73
2022-10-31T12:06:22.574Z,1.73
2022-10-31T12:08:49.069Z,1.60
2022-10-31T12:11:41.994Z,1.60
2022-10-31T12:14:27.503Z,1.27
2022-10-31T12:17:12.497Z,1.50
2022-10-31T12:19:50.173Z,1.70
2022-10-31T12:22:24.584Z,1.83
2022-10-31T12:25:09.613Z,1.65
2022-10-31T12:27:42.254Z,1.40
2022-10-31T12:30:08.800Z,1.65
2022-10-31T12:32:39.564Z,1.45
2022-10-31T12:35:11.902Z,1.55
2022-10-31T12:37:47.533Z,1.95
2022-10-31T12:40:49.188Z,1.63
2022-10-31T12:43:15.646Z,1.27
2022-10-31T12:45:58.877Z,1.80
2022-10-31T12:48:43.630Z,1.35
2022-10-31T12:51:34.773Z,1.73
2022-10-31T12:54:01.242Z,1.40
2022-10-31T12:57:05.956Z,1.95
2022-10-31T12:59:37.727Z,1.38
2022-10-31T13:02:19.904Z,1.40
2022-10-31T13:04:52.153Z,1.60
2022-10-31T13:07:21.930Z,1.48
2022-10-31T13:09:51.449Z,1.67
2022-10-31T13:12:19.928Z,1.48
2022-10-31T13:14:49.411Z,1.70
2022-10-31T13:17:28.251Z,1.50
2022-10-31T13:20:09.860Z,1.65
2022-10-31T13:22:37.379Z,1.40
2022-10-31T13:25:09.856Z,1.35
2022-10-31T13:27:39.407Z,1.35
2022-10-31T13:30:26.212Z,1.38
2022-10-31T13:33:10.832Z,1.45
2022-10-31T13:35:43.615Z,1.58
2022-10-31T13:38:15.783Z,1.40
2022-10-31T13:43:27.798Z,1.42
2022-10-31T13:45:55.385Z,1.40
2022-10-31T13:48:28.055Z,1.60
2022-10-31T13:50:58.671Z,1.30
2022-10-31T13:53:36.685Z,1.50
2022-10-31T13:56:06.552Z,1.30
2022-10-31T13:58:33.143Z,1.45
2022-10-31T14:01:00.972Z,1.27
2022-10-31T14:03:57.457Z,1.20
2022-10-31T14:06:16.608Z,1.45
2022-10-31T14:08:50.422Z,1.20
2022-10-31T14:11:24.023Z,1.25
2022-10-31T14:13:50.539Z,1.38
2022-10-31T14:16:19.570Z,1.05
2022-10-31T14:18:49.208Z,1.20
2022-10-31T14:21:24.825Z,1.35
2022-10-31T14:23:54.178Z,1.02
2022-10-31T14:26:31.523Z,1.25
2022-10-31T14:28:59.181Z,1.27
2022-10-31T14:31:28.804Z,0.98
2022-10-31T14:33:55.340Z,1.20
2022-10-31T14:36:42.111Z,1.27
2022-10-31T14:39:16.770Z,1.10
2022-10-31T14:41:49.153Z,1.20
2022-10-31T14:44:27.869Z,1.10
2022-10-31T14:47:00.444Z,0.98
2022-10-31T14:49:33.519Z,1.10
2022-10-31T14:52:00.262Z,0.95
2022-10-31T14:54:29.946Z,1.40
2022-10-31T14:57:00.036Z,0.95
2022-10-31T14:59:29.529Z,1.15
2022-10-31T15:02:00.976Z,1.00
2022-10-31T15:04:29.316Z,1.10
2022-10-31T15:07:05.328Z,0.90
2022-10-31T15:09:33.059Z,1.33
2022-10-31T15:12:00.762Z,1.20
2022-10-31T15:14:28.836Z,1.33
2022-10-31T15:16:57.498Z,1.15
2022-10-31T15:19:28.319Z,1.10
2022-10-31T15:21:55.587Z,1.20
2022-10-31T15:24:24.323Z,0.90
2022-10-31T15:26:52.615Z,1.20
2022-10-31T15:29:23.132Z,1.08
2022-10-31T15:31:52.820Z,1.10
2022-10-31T15:34:39.512Z,1.27
2022-10-31T15:37:10.623Z,1.00
2022-10-31T15:39:37.096Z,1.02
2022-10-31T15:42:03.876Z,1.10
2022-10-31T15:44:36.676Z,1.17
2022-10-31T15:47:04.806Z,1.10
2022-10-31T15:49:39.559Z,1.00
2022-10-31T15:52:17.214Z,1.10
2022-10-31T15:54:48.527Z,1.30
2022-10-31T15:57:15.364Z,1.00
2022-10-31T15:59:44.065Z,1.23
2022-10-31T16:02:12.012Z,1.20
2022-10-31T16:04:38.591Z,1.00
2022-10-31T16:07:21.766Z,0.90
2022-10-31T16:09:50.850Z,1.02
2022-10-31T16:12:21.410Z,1.10
2022-10-31T16:14:49.749Z,1.00
2022-10-31T16:17:17.590Z,1.20
2022-10-31T16:20:00.855Z,1.10
2022-10-31T16:22:32.171Z,1.20
2022-10-31T16:24:58.601Z,0.90
2022-10-31T16:27:29.486Z,1.13
2022-10-31T16:30:05.279Z,1.13
2022-10-31T16:32:52.965Z,1.00
2022-10-31T16:35:24.879Z,0.98
2022-10-31T16:37:51.458Z,1.00
2022-10-31T16:40:18.736Z,1.10
2022-10-31T16:42:45.882Z,1.08
2022-10-31T16:45:22.454Z,1.00
2022-10-31T16:47:49.458Z,1.00
2022-10-31T16:50:23.111Z,1.33
2022-10-31T16:55:42.093Z,1.23
2022-10-31T16:58:11.112Z,1.10
2022-10-31T17:00:38.211Z,1.30
2022-10-31T17:03:05.781Z,1.10
2022-10-31T17:05:33.151Z,1.40
2022-10-31T17:08:00.598Z,1.17
2022-10-31T17:10:27.780Z,1.17
2022-10-31T17:12:54.642Z,1.23
2022-10-31T17:15:25.766Z,1.15
2022-10-31T17:17:52.496Z,1.25
2022-10-31T17:20:23.419Z,1.40
2022-10-31T17:22:50.048Z,1.60
2022-10-31T17:25:17.655Z,1.58
2022-10-31T17:27:46.490Z,1.80
2022-10-31T17:30:14.230Z,1.75
2022-10-31T17:32:41.480Z,1.80
2022-10-31T17:35:08.876Z,1.42
2022-10-31T17:37:35.866Z,1.75
2022-10-31T17:40:03.070Z,1.90
2022-10-31T17:42:29.544Z,2.20
2022-10-31T17:44:55.979Z,2.28
2022-10-31T17:47:22.421Z,2.88
2022-10-31T17:49:48.978Z,2.20
2022-10-31T17:52:15.868Z,2.47
2022-10-31T17:54:42.357Z,2.60
2022-10-31T17:57:08.860Z,2.80
2022-10-31T17:59:35.290Z,2.85
2022-10-31T18:02:03.032Z,3.08
2022-10-31T18:04:29.673Z,3.45
2022-10-31T18:06:56.148Z,3.03
2022-10-31T18:09:22.633Z,3.38
2022-10-31T18:11:49.096Z,3.28
2022-10-31T18:14:15.608Z,3.17
2022-10-31T18:16:42.118Z,3.17
2022-10-31T18:19:12.027Z,3.50
2022-10-31T18:21:38.824Z,3.38
2022-10-31T18:24:05.543Z,3.58
2022-10-31T18:26:35.591Z,3.75
2022-10-31T18:29:02.257Z,3.92
2022-10-31T18:31:29.141Z,3.45
2022-10-31T18:33:56.324Z,3.92
2022-10-31T18:36:25.905Z,4.18
2022-10-31T18:38:52.411Z,3.70
2022-10-31T18:41:19.014Z,3.92
2022-10-31T18:43:45.475Z,4.07
2022-10-31T18:46:16.083Z,4.03
2022-10-31T18:48:43.465Z,4.10
2022-10-31T18:51:11.311Z,4.50
2022-10-31T18:53:37.887Z,4.18
2022-10-31T18:56:08.479Z,4.05
2022-10-31T18:58:35.183Z,3.80
2022-10-31T19:01:05.628Z,4.20
2022-10-31T19:03:32.143Z,4.07
2022-10-31T19:05:58.652Z,3.97
2022-10-31T19:08:25.491Z,3.97
2022-10-31T19:10:52.094Z,4.40
2022-10-31T19:13:18.573Z,4.40
2022-10-31T19:15:45.061Z,4.18
2022-10-31T19:18:11.520Z,4.78
2022-10-31T19:20:38.234Z,4.50
2022-10-31T19:23:05.132Z,4.43
2022-10-31T19:25:32.219Z,4.80
2022-10-31T19:28:02.100Z,4.78
2022-10-31T19:30:28.912Z,4.90
2022-10-31T19:32:58.418Z,4.88
2022-10-31T19:35:25.056Z,4.40
2022-10-31T19:37:51.513Z,4.72
2022-10-31T19:40:18.098Z,4.97
2022-10-31T19:42:44.572Z,5.30
2022-10-31T19:45:11.153Z,4.93
2022-10-31T19:47:37.717Z,4.90
2022-10-31T19:50:05.086Z,5.20
2022-10-31T19:52:35.220Z,5.10
2022-10-31T19:55:02.991Z,5.47
2022-10-31T19:57:56.238Z,4.85
2022-10-31T20:00:16.180Z,4.88
2022-10-31T20:02:42.651Z,5.32
2022-10-31T20:05:09.271Z,5.50
2022-10-31T20:07:36.096Z,5.22
2022-10-31T20:10:02.624Z,5.80
2022-10-31T20:12:29.103Z,5.38
2022-10-31T20:14:55.549Z,5.80
2022-10-31T20:17:22.071Z,5.35
2022-10-31T20:19:48.601Z,5.15
2022-10-31T20:22:15.148Z,5.40
2022-10-31T20:24:41.603Z,5.60
2022-10-31T20:27:08.086Z,5.30
2022-10-31T20:29:34.568Z,5.68
2022-10-31T20:32:01.018Z,5.68
2022-10-31T20:34:27.583Z,5.78
2022-10-31T20:36:54.086Z,5.03
2022-10-31T20:39:20.602Z,5.40
2022-10-31T20:41:48.687Z,5.50
2022-10-31T20:44:15.203Z,5.25
2022-10-31T20:46:41.763Z,5.70
2022-10-31T20:49:08.359Z,5.65
2022-10-31T20:51:34.951Z,5.40
2022-10-31T20:54:01.506Z,5.53
2022-10-31T20:56:28.890Z,5.90
2022-10-31T20:58:56.133Z,5.53
2022-10-31T21:01:23.971Z,5.93
2022-10-31T21:03:50.962Z,5.53
2022-10-31T21:06:17.968Z,5.20
2022-10-31T21:08:44.745Z,5.72
2022-10-31T21:11:12.941Z,5.55
2022-10-31T21:13:41.063Z,5.72
2022-10-31T21:16:09.201Z,5.75
2022-10-31T21:18:36.378Z,5.65
2022-10-31T21:21:27.608Z,5.68
2022-10-31T21:23:58.717Z,6.03
2022-10-31T21:26:27.153Z,5.68
2022-10-31T21:28:54.923Z,6.38
2022-10-31T21:31:21.408Z,6.20
2022-10-31T21:33:48.112Z,6.15
2022-10-31T21:36:14.889Z,5.50
2022-10-31T21:38:41.428Z,6.30
2022-10-31T21:41:07.979Z,5.75
2022-10-31T21:43:38.614Z,5.70
2022-10-31T21:46:10.938Z,6.50
2022-10-31T21:48:42.442Z,6.30
2022-10-31T21:51:10.414Z,6.18
2022-10-31T21:53:55.793Z,5.80
2022-10-31T21:56:22.943Z,5.93
2022-10-31T21:58:49.800Z,5.95
2022-10-31T22:01:16.347Z,6.60
2022-10-31T22:03:42.989Z,5.90
2022-10-31T22:06:10.443Z,5.95
2022-10-31T22:08:37.191Z,6.10
2022-10-31T22:11:08.231Z,6.10
2022-10-31T22:13:35.428Z,6.18
2022-10-31T22:16:02.540Z,6.07
2022-10-31T22:18:29.419Z,5.82
2022-10-31T22:21:05.609Z,6.18
2022-10-31T22:23:32.200Z,6.07
2022-10-31T22:26:05.302Z,6.22
2022-10-31T22:28:32.544Z,6.43
2022-10-31T22:30:59.235Z,6.10
2022-10-31T22:33:25.841Z,6.05
2022-10-31T22:35:52.337Z,6.00
2022-10-31T22:38:18.834Z,6.47
2022-10-31T22:40:45.292Z,6.35
2022-10-31T22:43:11.803Z,6.60
2022-10-31T22:45:38.252Z,6.50
2022-10-31T22:48:04.995Z,5.63
2022-10-31T22:50:32.369Z,6.25
2022-10-31T22:52:58.840Z,6.30
2022-10-31T22:55:25.324Z,6.13
2022-10-31T22:57:51.789Z,6.22
2022-10-31T23:00:18.504Z,6.32
2022-10-31T23:02:44.966Z,6.43
2022-10-31T23:05:11.506Z,6.55
2022-10-31T23:07:39.791Z,5.82
2022-10-31T23:10:06.517Z,6.35
2022-10-31T23:12:51.603Z,6.00
2022-10-31T23:15:18.103Z,6.28
2022-10-31T23:17:44.546Z,6.28
2022-10-31T23:20:11.046Z,5.53
2022-10-31T23:22:37.678Z,6.18
2022-10-31T23:25:04.352Z,6.40
2022-10-31T23:27:30.829Z,5.78
2022-10-31T23:29:58.201Z,6.43
2022-10-31T23:32:35.390Z,6.30
2022-10-31T23:35:07.074Z,6.00
2022-10-31T23:37:34.273Z,5.75
2022-10-31T23:40:00.867Z,6.00
2022-10-31T23:42:27.807Z,6.30
2022-10-31T23:44:54.451Z,6.35
2022-10-31T23:47:21.236Z,6.30
2022-10-31T23:49:47.736Z,6.40
2022-10-31T23:52:14.975Z,6.47
2022-10-31T23:54:41.851Z,6.57
2022-10-31T23:57:08.692Z,6.30
2022-10-31T23:59:35.236Z,6.20
